sensor_id;sensor_type;location;lat;lon;timestamp;P1;durP1;ratioP1;P2;durP2;ratioP2
46489;SDS011;32204;49.160;8.580;2023-04-03T00:02:08;3.53;;;1.40;;
46489;SDS011;32204;49.160;8.580;2023-04-03T00:04:34;2.67;;;1.55;;
46489;SDS011;32204;49.160;8.580;2023-04-03T00:07:00;2.20;;;1.40;;
46489;SDS011;32204;49.160;8.580;2023-04-03T00:09:25;3.28;;;1.55;;
46489;SDS011;32204;49.160;8.580;2023-04-03T00:11:51;1.45;;;1.13;;
46489;SDS011;32204;49.160;8.580;2023-04-03T00:14:16;4.32;;;1.65;;
46489;SDS011;32204;49.160;8.580;2023-04-03T00:16:42;4.57;;;1.50;;
46489;SDS011;32204;49.160;8.580;2023-04-03T00:19:08;6.68;;;1.95;;
46489;SDS011;32204;49.160;8.580;2023-04-03T00:21:36;2.13;;;1.50;;
46489;SDS011;32204;49.160;8.580;2023-04-03T00:24:02;4.88;;;1.92;;
46489;SDS011;32204;49.160;8.580;2023-04-03T00:26:28;2.17;;;1.45;;
46489;SDS011;32204;49.160;8.580;2023-04-03T00:28:53;1.60;;;1.40;;
46489;SDS011;32204;49.160;8.580;2023-04-03T00:31:19;2.97;;;1.50;;
46489;SDS011;32204;49.160;8.580;2023-04-03T00:33:44;2.15;;;1.50;;
46489;SDS011;32204;49.160;8.580;2023-04-03T00:36:10;3.90;;;1.83;;
46489;SDS011;32204;49.160;8.580;2023-04-03T00:38:37;2.40;;;1.83;;
46489;SDS011;32204;49.160;8.580;2023-04-03T00:41:03;3.13;;;1.67;;
46489;SDS011;32204;49.160;8.580;2023-04-03T00:43:28;2.92;;;1.98;;
46489;SDS011;32204;49.160;8.580;2023-04-03T00:45:55;3.97;;;2.13;;
46489;SDS011;32204;49.160;8.580;2023-04-03T00:48:29;2.65;;;1.70;;
46489;SDS011;32204;49.160;8.580;2023-04-03T00:50:58;3.15;;;2.03;;
46489;SDS011;32204;49.160;8.580;2023-04-03T00:53:26;2.83;;;1.92;;
46489;SDS011;32204;49.160;8.580;2023-04-03T00:55:57;4.50;;;1.85;;
46489;SDS011;32204;49.160;8.580;2023-04-03T00:58:33;2.28;;;1.70;;
46489;SDS011;32204;49.160;8.580;2023-04-03T01:03:31;2.67;;;2.00;;
46489;SDS011;32204;49.160;8.580;2023-04-03T01:05:57;2.95;;;1.85;;
46489;SDS011;32204;49.160;8.580;2023-04-03T01:08:23;2.03;;;1.90;;
46489;SDS011;32204;49.160;8.580;2023-04-03T01:10:48;1.92;;;1.70;;
46489;SDS011;32204;49.160;8.580;2023-04-03T01:13:18;4.75;;;1.45;;
46489;SDS011;32204;49.160;8.580;2023-04-03T01:15:50;2.80;;;2.40;;
46489;SDS011;32204;49.160;8.580;2023-04-03T01:18:16;4.82;;;2.40;;
46489;SDS011;32204;49.160;8.580;2023-04-03T01:20:50;2.78;;;1.92;;
46489;SDS011;32204;49.160;8.580;2023-04-03T01:26:39;2.90;;;2.42;;
46489;SDS011;32204;49.160;8.580;2023-04-03T01:29:05;4.97;;;1.92;;
46489;SDS011;32204;49.160;8.580;2023-04-03T01:34:08;3.88;;;1.80;;
46489;SDS011;32204;49.160;8.580;2023-04-03T01:36:33;7.75;;;2.33;;
46489;SDS011;32204;49.160;8.580;2023-04-03T01:38:59;3.80;;;2.35;;
46489;SDS011;32204;49.160;8.580;2023-04-03T01:41:25;4.28;;;1.80;;
46489;SDS011;32204;49.160;8.580;2023-04-03T01:43:52;3.92;;;1.90;;
46489;SDS011;32204;49.160;8.580;2023-04-03T01:46:18;3.45;;;1.77;;
46489;SDS011;32204;49.160;8.580;2023-04-03T01:48:44;3.45;;;2.35;;
46489;SDS011;32204;49.160;8.580;2023-04-03T01:51:09;2.75;;;2.55;;
46489;SDS011;32204;49.160;8.580;2023-04-03T01:53:35;3.10;;;2.08;;
46489;SDS011;32204;49.160;8.580;2023-04-03T01:56:01;3.30;;;1.95;;
46489;SDS011;32204;49.160;8.580;2023-04-03T01:58:26;3.65;;;2.20;;
46489;SDS011;32204;49.160;8.580;2023-04-03T02:00:52;5.28;;;2.15;;
46489;SDS011;32204;49.160;8.580;2023-04-03T02:03:18;3.38;;;1.92;;
46489;SDS011;32204;49.160;8.580;2023-04-03T02:05:44;4.50;;;2.28;;
46489;SDS011;32204;49.160;8.580;2023-04-03T02:08:10;3.75;;;1.75;;
46489;SDS011;32204;49.160;8.580;2023-04-03T02:10:36;5.60;;;2.30;;
46489;SDS011;32204;49.160;8.580;2023-04-03T02:13:01;5.78;;;1.77;;
46489;SDS011;32204;49.160;8.580;2023-04-03T02:15:27;3.85;;;2.08;;
46489;SDS011;32204;49.160;8.580;2023-04-03T02:17:53;4.22;;;1.75;;
46489;SDS011;32204;49.160;8.580;2023-04-03T02:20:18;4.50;;;1.85;;
46489;SDS011;32204;49.160;8.580;2023-04-03T02:22:44;4.03;;;2.08;;
46489;SDS011;32204;49.160;8.580;2023-04-03T02:25:10;2.40;;;1.70;;
46489;SDS011;32204;49.160;8.580;2023-04-03T02:27:36;4.72;;;2.20;;
46489;SDS011;32204;49.160;8.580;2023-04-03T02:30:02;4.18;;;2.20;;
46489;SDS011;32204;49.160;8.580;2023-04-03T02:32:28;4.85;;;1.88;;
46489;SDS011;32204;49.160;8.580;2023-04-03T02:34:54;5.85;;;1.85;;
46489;SDS011;32204;49.160;8.580;2023-04-03T02:37:20;3.95;;;2.47;;
46489;SDS011;32204;49.160;8.580;2023-04-03T02:39:46;4.72;;;2.40;;
46489;SDS011;32204;49.160;8.580;2023-04-03T02:42:12;3.53;;;2.00;;
46489;SDS011;32204;49.160;8.580;2023-04-03T02:44:37;3.85;;;2.28;;
46489;SDS011;32204;49.160;8.580;2023-04-03T02:47:03;2.35;;;1.70;;
46489;SDS011;32204;49.160;8.580;2023-04-03T02:49:30;2.22;;;1.58;;
46489;SDS011;32204;49.160;8.580;2023-04-03T02:51:58;3.25;;;1.70;;
46489;SDS011;32204;49.160;8.580;2023-04-03T02:54:24;3.53;;;2.00;;
46489;SDS011;32204;49.160;8.580;2023-04-03T02:56:53;2.92;;;1.92;;
46489;SDS011;32204;49.160;8.580;2023-04-03T02:59:19;3.53;;;1.95;;
46489;SDS011;32204;49.160;8.580;2023-04-03T03:01:45;4.43;;;2.17;;
46489;SDS011;32204;49.160;8.580;2023-04-03T03:04:10;3.15;;;1.92;;
46489;SDS011;32204;49.160;8.580;2023-04-03T03:06:36;3.10;;;1.90;;
46489;SDS011;32204;49.160;8.580;2023-04-03T03:09:02;3.42;;;1.75;;
46489;SDS011;32204;49.160;8.580;2023-04-03T03:11:28;2.95;;;1.70;;
46489;SDS011;32204;49.160;8.580;2023-04-03T03:13:54;3.42;;;2.03;;
46489;SDS011;32204;49.160;8.580;2023-04-03T03:16:20;3.42;;;1.77;;
46489;SDS011;32204;49.160;8.580;2023-04-03T03:18:45;4.50;;;1.80;;
46489;SDS011;32204;49.160;8.580;2023-04-03T03:21:11;4.43;;;1.70;;
46489;SDS011;32204;49.160;8.580;2023-04-03T03:23:37;2.55;;;1.42;;
46489;SDS011;32204;49.160;8.580;2023-04-03T03:26:04;3.05;;;1.70;;
46489;SDS011;32204;49.160;8.580;2023-04-03T03:30:57;5.30;;;1.80;;
46489;SDS011;32204;49.160;8.580;2023-04-03T03:33:23;2.88;;;1.50;;
46489;SDS011;32204;49.160;8.580;2023-04-03T03:35:50;3.05;;;2.08;;
46489;SDS011;32204;49.160;8.580;2023-04-03T03:38:16;2.25;;;1.98;;
46489;SDS011;32204;49.160;8.580;2023-04-03T03:40:42;4.15;;;1.95;;
46489;SDS011;32204;49.160;8.580;2023-04-03T03:43:08;3.38;;;1.75;;
46489;SDS011;32204;49.160;8.580;2023-04-03T03:45:33;3.38;;;2.17;;
46489;SDS011;32204;49.160;8.580;2023-04-03T03:48:00;3.45;;;1.92;;
46489;SDS011;32204;49.160;8.580;2023-04-03T03:50:27;2.63;;;1.60;;
46489;SDS011;32204;49.160;8.580;2023-04-03T03:52:53;2.38;;;1.60;;
46489;SDS011;32204;49.160;8.580;2023-04-03T03:55:18;3.53;;;1.77;;
46489;SDS011;32204;49.160;8.580;2023-04-03T03:57:44;2.55;;;2.35;;
46489;SDS011;32204;49.160;8.580;2023-04-03T04:00:10;3.90;;;2.00;;
46489;SDS011;32204;49.160;8.580;2023-04-03T04:02:36;5.00;;;1.80;;
46489;SDS011;32204;49.160;8.580;2023-04-03T04:05:01;3.28;;;1.90;;
46489;SDS011;32204;49.160;8.580;2023-04-03T04:07:27;3.42;;;1.73;;
46489;SDS011;32204;49.160;8.580;2023-04-03T04:09:54;3.30;;;1.73;;
46489;SDS011;32204;49.160;8.580;2023-04-03T04:12:20;5.65;;;1.60;;
46489;SDS011;32204;49.160;8.580;2023-04-03T04:14:46;2.53;;;1.60;;
46489;SDS011;32204;49.160;8.580;2023-04-03T04:17:14;3.28;;;1.67;;
46489;SDS011;32204;49.160;8.580;2023-04-03T04:19:40;2.15;;;1.58;;
46489;SDS011;32204;49.160;8.580;2023-04-03T04:22:06;3.10;;;1.90;;
46489;SDS011;32204;49.160;8.580;2023-04-03T04:24:31;4.07;;;2.00;;
46489;SDS011;32204;49.160;8.580;2023-04-03T04:26:57;3.53;;;2.00;;
46489;SDS011;32204;49.160;8.580;2023-04-03T04:29:23;4.50;;;2.45;;
46489;SDS011;32204;49.160;8.580;2023-04-03T04:31:49;2.35;;;1.77;;
46489;SDS011;32204;49.160;8.580;2023-04-03T04:34:14;2.63;;;2.08;;
46489;SDS011;32204;49.160;8.580;2023-04-03T04:36:40;2.67;;;2.00;;
46489;SDS011;32204;49.160;8.580;2023-04-03T04:39:06;4.15;;;1.92;;
46489;SDS011;32204;49.160;8.580;2023-04-03T04:41:32;3.38;;;2.03;;
46489;SDS011;32204;49.160;8.580;2023-04-03T04:43:57;2.90;;;1.90;;
46489;SDS011;32204;49.160;8.580;2023-04-03T04:46:23;4.85;;;2.50;;
46489;SDS011;32204;49.160;8.580;2023-04-03T04:48:49;4.35;;;2.55;;
46489;SDS011;32204;49.160;8.580;2023-04-03T04:51:15;3.35;;;2.22;;
46489;SDS011;32204;49.160;8.580;2023-04-03T04:53:40;4.53;;;1.92;;
46489;SDS011;32204;49.160;8.580;2023-04-03T04:56:07;5.00;;;2.60;;
46489;SDS011;32204;49.160;8.580;2023-04-03T04:58:33;2.08;;;1.67;;
46489;SDS011;32204;49.160;8.580;2023-04-03T05:00:59;5.05;;;2.15;;
46489;SDS011;32204;49.160;8.580;2023-04-03T05:03:26;3.92;;;2.00;;
46489;SDS011;32204;49.160;8.580;2023-04-03T05:05:52;3.05;;;1.95;;
46489;SDS011;32204;49.160;8.580;2023-04-03T05:08:17;4.10;;;2.15;;
46489;SDS011;32204;49.160;8.580;2023-04-03T05:10:44;2.03;;;1.92;;
46489;SDS011;32204;49.160;8.580;2023-04-03T05:13:10;2.30;;;2.00;;
46489;SDS011;32204;49.160;8.580;2023-04-03T05:15:36;3.13;;;2.15;;
46489;SDS011;32204;49.160;8.580;2023-04-03T05:18:02;5.40;;;2.88;;
46489;SDS011;32204;49.160;8.580;2023-04-03T05:20:28;4.75;;;2.15;;
46489;SDS011;32204;49.160;8.580;2023-04-03T05:22:53;2.50;;;1.83;;
46489;SDS011;32204;49.160;8.580;2023-04-03T05:25:19;4.03;;;1.85;;
46489;SDS011;32204;49.160;8.580;2023-04-03T05:27:45;3.38;;;2.13;;
46489;SDS011;32204;49.160;8.580;2023-04-03T05:30:10;2.25;;;1.88;;
46489;SDS011;32204;49.160;8.580;2023-04-03T05:32:36;3.90;;;2.83;;
46489;SDS011;32204;49.160;8.580;2023-04-03T05:35:02;2.70;;;2.20;;
46489;SDS011;32204;49.160;8.580;2023-04-03T05:37:28;2.50;;;2.05;;
46489;SDS011;32204;49.160;8.580;2023-04-03T05:39:54;4.43;;;2.20;;
46489;SDS011;32204;49.160;8.580;2023-04-03T05:42:20;3.58;;;2.30;;
46489;SDS011;32204;49.160;8.580;2023-04-03T05:44:48;2.92;;;1.95;;
46489;SDS011;32204;49.160;8.580;2023-04-03T05:47:15;2.22;;;1.90;;
46489;SDS011;32204;49.160;8.580;2023-04-03T05:49:41;3.97;;;2.00;;
46489;SDS011;32204;49.160;8.580;2023-04-03T05:52:26;3.80;;;2.35;;
46489;SDS011;32204;49.160;8.580;2023-04-03T05:54:58;3.97;;;2.20;;
46489;SDS011;32204;49.160;8.580;2023-04-03T05:57:24;3.65;;;2.30;;
46489;SDS011;32204;49.160;8.580;2023-04-03T05:59:49;3.60;;;2.20;;
46489;SDS011;32204;49.160;8.580;2023-04-03T06:02:16;3.83;;;2.58;;
46489;SDS011;32204;49.160;8.580;2023-04-03T06:04:44;2.45;;;1.88;;
46489;SDS011;32204;49.160;8.580;2023-04-03T06:07:11;4.30;;;2.50;;
46489;SDS011;32204;49.160;8.580;2023-04-03T06:09:40;2.97;;;1.70;;
46489;SDS011;32204;49.160;8.580;2023-04-03T06:12:06;3.22;;;2.00;;
46489;SDS011;32204;49.160;8.580;2023-04-03T06:14:32;4.93;;;2.10;;
46489;SDS011;32204;49.160;8.580;2023-04-03T06:16:57;6.05;;;2.47;;
46489;SDS011;32204;49.160;8.580;2023-04-03T06:19:24;2.97;;;2.20;;
46489;SDS011;32204;49.160;8.580;2023-04-03T06:21:50;2.50;;;2.30;;
46489;SDS011;32204;49.160;8.580;2023-04-03T06:24:17;6.35;;;2.13;;
46489;SDS011;32204;49.160;8.580;2023-04-03T06:26:43;4.72;;;2.42;;
46489;SDS011;32204;49.160;8.580;2023-04-03T06:29:09;3.08;;;1.77;;
46489;SDS011;32204;49.160;8.580;2023-04-03T06:31:35;3.03;;;2.05;;
46489;SDS011;32204;49.160;8.580;2023-04-03T06:34:01;3.30;;;2.30;;
46489;SDS011;32204;49.160;8.580;2023-04-03T06:36:28;2.75;;;1.50;;
46489;SDS011;32204;49.160;8.580;2023-04-03T06:38:54;2.92;;;1.80;;
46489;SDS011;32204;49.160;8.580;2023-04-03T06:41:19;3.13;;;1.83;;
46489;SDS011;32204;49.160;8.580;2023-04-03T06:43:46;3.03;;;1.58;;
46489;SDS011;32204;49.160;8.580;2023-04-03T06:46:15;3.78;;;1.65;;
46489;SDS011;32204;49.160;8.580;2023-04-03T06:48:45;2.38;;;1.92;;
46489;SDS011;32204;49.160;8.580;2023-04-03T06:51:24;4.28;;;2.00;;
46489;SDS011;32204;49.160;8.580;2023-04-03T06:53:53;2.58;;;1.67;;
46489;SDS011;32204;49.160;8.580;2023-04-03T06:56:20;2.75;;;1.40;;
46489;SDS011;32204;49.160;8.580;2023-04-03T06:58:46;3.08;;;1.40;;
46489;SDS011;32204;49.160;8.580;2023-04-03T07:01:12;3.00;;;2.35;;
46489;SDS011;32204;49.160;8.580;2023-04-03T07:03:39;5.25;;;3.20;;
46489;SDS011;32204;49.160;8.580;2023-04-03T07:06:06;4.10;;;2.22;;
46489;SDS011;32204;49.160;8.580;2023-04-03T07:08:33;3.47;;;2.28;;
46489;SDS011;32204;49.160;8.580;2023-04-03T07:10:59;5.95;;;2.60;;
46489;SDS011;32204;49.160;8.580;2023-04-03T07:13:26;4.35;;;2.22;;
46489;SDS011;32204;49.160;8.580;2023-04-03T07:15:51;3.83;;;2.40;;
46489;SDS011;32204;49.160;8.580;2023-04-03T07:18:17;5.78;;;2.38;;
46489;SDS011;32204;49.160;8.580;2023-04-03T07:20:43;3.10;;;2.65;;
46489;SDS011;32204;49.160;8.580;2023-04-03T07:23:09;4.25;;;2.97;;
46489;SDS011;32204;49.160;8.580;2023-04-03T07:25:35;9.13;;;2.95;;
46489;SDS011;32204;49.160;8.580;2023-04-03T07:28:02;3.92;;;2.65;;
46489;SDS011;32204;49.160;8.580;2023-04-03T07:30:28;4.60;;;2.92;;
46489;SDS011;32204;49.160;8.580;2023-04-03T07:32:54;4.43;;;3.58;;
46489;SDS011;32204;49.160;8.580;2023-04-03T07:35:20;5.28;;;3.80;;
46489;SDS011;32204;49.160;8.580;2023-04-03T07:37:46;6.65;;;3.28;;
46489;SDS011;32204;49.160;8.580;2023-04-03T07:40:11;9.85;;;3.47;;
46489;SDS011;32204;49.160;8.580;2023-04-03T07:42:37;4.72;;;3.20;;
46489;SDS011;32204;49.160;8.580;2023-04-03T07:45:03;7.55;;;3.33;;
46489;SDS011;32204;49.160;8.580;2023-04-03T07:47:29;5.32;;;3.47;;
46489;SDS011;32204;49.160;8.580;2023-04-03T07:49:56;4.25;;;2.97;;
46489;SDS011;32204;49.160;8.580;2023-04-03T07:52:22;5.88;;;4.07;;
46489;SDS011;32204;49.160;8.580;2023-04-03T07:54:48;6.38;;;3.35;;
46489;SDS011;32204;49.160;8.580;2023-04-03T07:57:13;5.88;;;3.40;;
46489;SDS011;32204;49.160;8.580;2023-04-03T07:59:39;4.50;;;2.78;;
46489;SDS011;32204;49.160;8.580;2023-04-03T08:02:08;5.15;;;2.78;;
46489;SDS011;32204;49.160;8.580;2023-04-03T08:04:34;5.70;;;2.97;;
46489;SDS011;32204;49.160;8.580;2023-04-03T08:07:00;5.68;;;2.80;;
46489;SDS011;32204;49.160;8.580;2023-04-03T08:09:26;6.93;;;3.22;;
46489;SDS011;32204;49.160;8.580;2023-04-03T08:11:52;7.07;;;2.75;;
46489;SDS011;32204;49.160;8.580;2023-04-03T08:14:18;5.97;;;2.85;;
46489;SDS011;32204;49.160;8.580;2023-04-03T08:16:45;4.45;;;1.85;;
46489;SDS011;32204;49.160;8.580;2023-04-03T08:19:11;3.85;;;2.40;;
46489;SDS011;32204;49.160;8.580;2023-04-03T08:21:39;4.28;;;2.10;;
46489;SDS011;32204;49.160;8.580;2023-04-03T08:24:06;2.17;;;1.77;;
46489;SDS011;32204;49.160;8.580;2023-04-03T08:26:33;4.85;;;2.10;;
46489;SDS011;32204;49.160;8.580;2023-04-03T08:28:58;10.75;;;2.38;;
46489;SDS011;32204;49.160;8.580;2023-04-03T08:31:24;2.97;;;1.83;;
46489;SDS011;32204;49.160;8.580;2023-04-03T08:33:50;6.97;;;2.28;;
46489;SDS011;32204;49.160;8.580;2023-04-03T08:36:26;5.40;;;2.13;;
46489;SDS011;32204;49.160;8.580;2023-04-03T08:38:53;2.35;;;2.13;;
46489;SDS011;32204;49.160;8.580;2023-04-03T08:41:33;3.15;;;1.70;;
46489;SDS011;32204;49.160;8.580;2023-04-03T08:49:48;3.78;;;2.45;;
46489;SDS011;32204;49.160;8.580;2023-04-03T08:54:51;5.05;;;2.38;;
46489;SDS011;32204;49.160;8.580;2023-04-03T08:57:21;5.13;;;2.25;;
46489;SDS011;32204;49.160;8.580;2023-04-03T08:59:55;3.72;;;1.95;;
46489;SDS011;32204;49.160;8.580;2023-04-03T09:04:51;4.32;;;1.65;;
46489;SDS011;32204;49.160;8.580;2023-04-03T09:07:20;3.90;;;1.75;;
46489;SDS011;32204;49.160;8.580;2023-04-03T09:09:54;3.13;;;1.42;;
46489;SDS011;32204;49.160;8.580;2023-04-03T09:12:32;3.08;;;1.73;;
46489;SDS011;32204;49.160;8.580;2023-04-03T09:15:13;3.30;;;1.05;;
46489;SDS011;32204;49.160;8.580;2023-04-03T09:20:47;2.22;;;1.27;;
46489;SDS011;32204;49.160;8.580;2023-04-03T09:23:32;2.85;;;1.42;;
46489;SDS011;32204;49.160;8.580;2023-04-03T09:26:13;5.47;;;2.00;;
46489;SDS011;32204;49.160;8.580;2023-04-03T09:28:42;5.88;;;1.95;;
46489;SDS011;32204;49.160;8.580;2023-04-03T09:31:43;6.40;;;1.48;;
46489;SDS011;32204;49.160;8.580;2023-04-03T09:34:06;4.32;;;1.88;;
46489;SDS011;32204;49.160;8.580;2023-04-03T09:36:46;4.35;;;1.90;;
46489;SDS011;32204;49.160;8.580;2023-04-03T09:39:15;3.78;;;1.40;;
46489;SDS011;32204;49.160;8.580;2023-04-03T09:41:57;4.90;;;2.20;;
46489;SDS011;32204;49.160;8.580;2023-04-03T09:44:34;3.28;;;1.80;;
46489;SDS011;32204;49.160;8.580;2023-04-03T09:49:50;2.50;;;1.25;;
46489;SDS011;32204;49.160;8.580;2023-04-03T09:52:20;3.30;;;1.48;;
46489;SDS011;32204;49.160;8.580;2023-04-03T09:54:49;2.58;;;1.20;;
46489;SDS011;32204;49.160;8.580;2023-04-03T09:57:15;1.98;;;0.93;;
46489;SDS011;32204;49.160;8.580;2023-04-03T10:00:03;2.97;;;1.30;;
46489;SDS011;32204;49.160;8.580;2023-04-03T10:05:23;4.38;;;1.80;;
46489;SDS011;32204;49.160;8.580;2023-04-03T10:08:06;3.55;;;1.55;;
46489;SDS011;32204;49.160;8.580;2023-04-03T10:10:35;4.07;;;1.85;;
46489;SDS011;32204;49.160;8.580;2023-04-03T10:13:10;7.55;;;1.85;;
46489;SDS011;32204;49.160;8.580;2023-04-03T10:15:56;6.03;;;2.15;;
46489;SDS011;32204;49.160;8.580;2023-04-03T10:18:40;2.38;;;1.40;;
46489;SDS011;32204;49.160;8.580;2023-04-03T10:23:56;2.67;;;1.23;;
46489;SDS011;32204;49.160;8.580;2023-04-03T10:26:36;4.22;;;1.77;;
46489;SDS011;32204;49.160;8.580;2023-04-03T10:29:20;1.83;;;1.15;;
46489;SDS011;32204;49.160;8.580;2023-04-03T10:31:53;2.38;;;1.40;;
46489;SDS011;32204;49.160;8.580;2023-04-03T10:34:37;3.03;;;1.70;;
46489;SDS011;32204;49.160;8.580;2023-04-03T10:37:19;2.35;;;1.35;;
46489;SDS011;32204;49.160;8.580;2023-04-03T10:48:01;4.85;;;1.13;;
46489;SDS011;32204;49.160;8.580;2023-04-03T10:50:47;1.00;;;0.90;;
46489;SDS011;32204;49.160;8.580;2023-04-03T10:54:32;1.48;;;1.20;;
46489;SDS011;32204;49.160;8.580;2023-04-03T11:01:44;3.13;;;1.25;;
46489;SDS011;32204;49.160;8.580;2023-04-03T11:04:12;3.05;;;1.10;;
46489;SDS011;32204;49.160;8.580;2023-04-03T11:06:43;2.97;;;1.30;;
46489;SDS011;32204;49.160;8.580;2023-04-03T11:11:47;2.33;;;1.13;;
46489;SDS011;32204;49.160;8.580;2023-04-03T11:22:32;3.42;;;1.33;;
46489;SDS011;32204;49.160;8.580;2023-04-03T11:27:41;2.78;;;1.45;;
46489;SDS011;32204;49.160;8.580;2023-04-03T11:35:58;2.97;;;1.38;;
46489;SDS011;32204;49.160;8.580;2023-04-03T11:38:30;2.70;;;1.30;;
46489;SDS011;32204;49.160;8.580;2023-04-03T11:41:01;6.05;;;2.33;;
46489;SDS011;32204;49.160;8.580;2023-04-03T11:43:28;4.10;;;1.10;;
46489;SDS011;32204;49.160;8.580;2023-04-03T11:46:02;1.90;;;0.98;;
46489;SDS011;32204;49.160;8.580;2023-04-03T11:51:07;1.90;;;1.35;;
46489;SDS011;32204;49.160;8.580;2023-04-03T11:53:52;3.03;;;1.20;;
46489;SDS011;32204;49.160;8.580;2023-04-03T12:01:51;3.03;;;1.40;;
46489;SDS011;32204;49.160;8.580;2023-04-03T12:04:18;3.50;;;1.70;;
46489;SDS011;32204;49.160;8.580;2023-04-03T12:12:29;3.72;;;1.50;;
46489;SDS011;32204;49.160;8.580;2023-04-03T12:14:55;2.65;;;1.23;;
46489;SDS011;32204;49.160;8.580;2023-04-03T12:17:26;4.15;;;1.40;;
46489;SDS011;32204;49.160;8.580;2023-04-03T12:19:54;3.25;;;1.55;;
46489;SDS011;32204;49.160;8.580;2023-04-03T12:22:20;3.00;;;1.40;;
46489;SDS011;32204;49.160;8.580;2023-04-03T12:24:48;3.13;;;1.50;;
46489;SDS011;32204;49.160;8.580;2023-04-03T12:29:51;3.13;;;1.35;;
46489;SDS011;32204;49.160;8.580;2023-04-03T12:46:14;2.55;;;1.38;;
46489;SDS011;32204;49.160;8.580;2023-04-03T12:51:27;6.13;;;2.00;;
46489;SDS011;32204;49.160;8.580;2023-04-03T12:54:03;4.97;;;2.20;;
46489;SDS011;32204;49.160;8.580;2023-04-03T12:56:38;2.85;;;1.10;;
46489;SDS011;32204;49.160;8.580;2023-04-03T12:59:18;2.83;;;1.40;;
46489;SDS011;32204;49.160;8.580;2023-04-03T13:01:56;3.40;;;1.60;;
46489;SDS011;32204;49.160;8.580;2023-04-03T13:04:23;3.25;;;1.55;;
46489;SDS011;32204;49.160;8.580;2023-04-03T13:06:49;3.90;;;2.00;;
46489;SDS011;32204;49.160;8.580;2023-04-03T13:09:26;3.45;;;1.85;;
46489;SDS011;32204;49.160;8.580;2023-04-03T13:11:57;2.10;;;1.30;;
46489;SDS011;32204;49.160;8.580;2023-04-03T13:14:28;4.00;;;1.60;;
46489;SDS011;32204;49.160;8.580;2023-04-03T13:16:54;3.03;;;2.00;;
46489;SDS011;32204;49.160;8.580;2023-04-03T13:19:41;3.63;;;1.20;;
46489;SDS011;32204;49.160;8.580;2023-04-03T13:22:08;4.28;;;1.63;;
46489;SDS011;32204;49.160;8.580;2023-04-03T13:24:49;2.17;;;1.23;;
46489;SDS011;32204;49.160;8.580;2023-04-03T13:27:17;3.50;;;1.40;;
46489;SDS011;32204;49.160;8.580;2023-04-03T13:29:45;3.95;;;1.55;;
46489;SDS011;32204;49.160;8.580;2023-04-03T13:32:18;4.70;;;1.70;;
46489;SDS011;32204;49.160;8.580;2023-04-03T13:34:46;4.90;;;1.85;;
46489;SDS011;32204;49.160;8.580;2023-04-03T13:40:12;4.07;;;2.05;;
46489;SDS011;32204;49.160;8.580;2023-04-03T13:42:39;10.25;;;2.83;;
46489;SDS011;32204;49.160;8.580;2023-04-03T13:45:08;2.10;;;1.55;;
46489;SDS011;32204;49.160;8.580;2023-04-03T13:47:54;3.20;;;1.60;;
46489;SDS011;32204;49.160;8.580;2023-04-03T13:50:51;5.00;;;1.92;;
46489;SDS011;32204;49.160;8.580;2023-04-03T13:53:23;4.22;;;1.52;;
46489;SDS011;32204;49.160;8.580;2023-04-03T13:58:28;3.15;;;1.42;;
46489;SDS011;32204;49.160;8.580;2023-04-03T14:01:00;2.78;;;1.23;;
46489;SDS011;32204;49.160;8.580;2023-04-03T14:03:56;2.08;;;1.45;;
46489;SDS011;32204;49.160;8.580;2023-04-03T14:06:27;4.20;;;1.42;;
46489;SDS011;32204;49.160;8.580;2023-04-03T14:08:54;1.88;;;1.48;;
46489;SDS011;32204;49.160;8.580;2023-04-03T14:11:21;1.92;;;1.30;;
46489;SDS011;32204;49.160;8.580;2023-04-03T14:14:02;2.75;;;1.80;;
46489;SDS011;32204;49.160;8.580;2023-04-03T14:16:37;4.00;;;1.73;;
46489;SDS011;32204;49.160;8.580;2023-04-03T14:19:05;2.45;;;1.33;;
46489;SDS011;32204;49.160;8.580;2023-04-03T14:21:31;4.63;;;1.30;;
46489;SDS011;32204;49.160;8.580;2023-04-03T14:23:57;4.68;;;1.85;;
46489;SDS011;32204;49.160;8.580;2023-04-03T14:26:23;2.50;;;1.35;;
46489;SDS011;32204;49.160;8.580;2023-04-03T14:28:52;2.40;;;1.17;;
46489;SDS011;32204;49.160;8.580;2023-04-03T14:31:20;2.67;;;1.40;;
46489;SDS011;32204;49.160;8.580;2023-04-03T14:33:47;2.58;;;1.60;;
46489;SDS011;32204;49.160;8.580;2023-04-03T14:38:51;3.35;;;1.20;;
46489;SDS011;32204;49.160;8.580;2023-04-03T14:41:19;3.33;;;1.75;;
46489;SDS011;32204;49.160;8.580;2023-04-03T14:43:47;3.13;;;1.60;;
46489;SDS011;32204;49.160;8.580;2023-04-03T14:46:17;2.88;;;1.30;;
46489;SDS011;32204;49.160;8.580;2023-04-03T14:48:51;2.47;;;1.48;;
46489;SDS011;32204;49.160;8.580;2023-04-03T14:51:17;3.58;;;1.40;;
46489;SDS011;32204;49.160;8.580;2023-04-03T14:53:43;1.80;;;1.38;;
46489;SDS011;32204;49.160;8.580;2023-04-03T14:56:11;2.80;;;1.60;;
46489;SDS011;32204;49.160;8.580;2023-04-03T14:58:42;7.28;;;2.00;;
46489;SDS011;32204;49.160;8.580;2023-04-03T15:01:09;3.63;;;1.23;;
46489;SDS011;32204;49.160;8.580;2023-04-03T15:03:37;2.17;;;1.20;;
46489;SDS011;32204;49.160;8.580;2023-04-03T15:06:02;3.85;;;2.15;;
46489;SDS011;32204;49.160;8.580;2023-04-03T15:08:28;2.85;;;1.60;;
46489;SDS011;32204;49.160;8.580;2023-04-03T15:10:54;2.95;;;1.70;;
46489;SDS011;32204;49.160;8.580;2023-04-03T15:13:21;1.88;;;1.23;;
46489;SDS011;32204;49.160;8.580;2023-04-03T15:15:48;3.85;;;1.10;;
46489;SDS011;32204;49.160;8.580;2023-04-03T15:18:17;2.65;;;1.35;;
46489;SDS011;32204;49.160;8.580;2023-04-03T15:20:46;3.65;;;1.60;;
46489;SDS011;32204;49.160;8.580;2023-04-03T15:23:13;3.80;;;1.90;;
46489;SDS011;32204;49.160;8.580;2023-04-03T15:25:41;2.53;;;1.50;;
46489;SDS011;32204;49.160;8.580;2023-04-03T15:28:19;2.42;;;1.17;;
46489;SDS011;32204;49.160;8.580;2023-04-03T15:31:07;3.10;;;1.60;;
46489;SDS011;32204;49.160;8.580;2023-04-03T15:33:34;3.42;;;1.50;;
46489;SDS011;32204;49.160;8.580;2023-04-03T15:36:00;2.95;;;1.35;;
46489;SDS011;32204;49.160;8.580;2023-04-03T15:38:26;2.53;;;1.90;;
46489;SDS011;32204;49.160;8.580;2023-04-03T15:40:52;3.83;;;1.73;;
46489;SDS011;32204;49.160;8.580;2023-04-03T15:43:19;2.00;;;1.60;;
46489;SDS011;32204;49.160;8.580;2023-04-03T15:45:49;3.08;;;1.95;;
46489;SDS011;32204;49.160;8.580;2023-04-03T15:48:15;1.98;;;1.50;;
46489;SDS011;32204;49.160;8.580;2023-04-03T15:50:41;5.47;;;1.60;;
46489;SDS011;32204;49.160;8.580;2023-04-03T15:53:07;2.38;;;1.63;;
46489;SDS011;32204;49.160;8.580;2023-04-03T15:55:35;2.45;;;1.90;;
46489;SDS011;32204;49.160;8.580;2023-04-03T15:58:03;2.50;;;1.67;;
46489;SDS011;32204;49.160;8.580;2023-04-03T16:00:29;3.53;;;2.03;;
46489;SDS011;32204;49.160;8.580;2023-04-03T16:02:57;2.45;;;1.70;;
46489;SDS011;32204;49.160;8.580;2023-04-03T16:05:26;2.08;;;1.65;;
46489;SDS011;32204;49.160;8.580;2023-04-03T16:07:52;3.05;;;1.88;;
46489;SDS011;32204;49.160;8.580;2023-04-03T16:10:20;1.63;;;1.10;;
46489;SDS011;32204;49.160;8.580;2023-04-03T16:12:46;3.33;;;2.08;;
46489;SDS011;32204;49.160;8.580;2023-04-03T16:15:12;7.57;;;4.22;;
46489;SDS011;32204;49.160;8.580;2023-04-03T16:17:38;3.45;;;1.67;;
46489;SDS011;32204;49.160;8.580;2023-04-03T16:20:06;2.53;;;1.77;;
46489;SDS011;32204;49.160;8.580;2023-04-03T16:22:33;3.25;;;1.92;;
46489;SDS011;32204;49.160;8.580;2023-04-03T16:24:59;3.53;;;2.60;;
46489;SDS011;32204;49.160;8.580;2023-04-03T16:27:25;4.72;;;2.05;;
46489;SDS011;32204;49.160;8.580;2023-04-03T16:29:55;3.97;;;1.50;;
46489;SDS011;32204;49.160;8.580;2023-04-03T16:32:21;3.78;;;1.85;;
46489;SDS011;32204;49.160;8.580;2023-04-03T16:34:48;3.10;;;1.70;;
46489;SDS011;32204;49.160;8.580;2023-04-03T16:37:14;2.95;;;1.55;;
46489;SDS011;32204;49.160;8.580;2023-04-03T16:39:41;3.65;;;1.98;;
46489;SDS011;32204;49.160;8.580;2023-04-03T16:42:07;3.20;;;1.67;;
46489;SDS011;32204;49.160;8.580;2023-04-03T16:44:34;2.78;;;1.50;;